Time;durP1;ratioP1;P1;durP2;ratioP2;P2;SDS_P1;SDS_P2;PMS_P1;PMS_P2;Temp;Humidity;BMP_temperature;BMP_pressure;BME280_temperature;BME280_humidity;BME280_pressure;Samples;Min_cycle;Max_cycle;Signal;HPM_P1;HPM_P2
2024/04/04 00:02:09;;;;;;;3.90;1.00;;;11.50;1.00;;;;;;5017101;28;20473;-42
2024/04/04 00:04:34;;;;;;;5.67;1.50;;;11.50;1.00;;;;;;5017456;28;20198;-43
2024/04/04 00:07:00;;;;;;;5.80;1.53;;;11.50;1.00;;;;;;5017679;28;20261;-43
2024/04/04 00:09:25;;;;;;;4.03;1.50;;;11.50;99.90;;;;;;5017032;28;20465;-43
2024/04/04 00:11:51;;;;;;;6.60;2.30;;;11.50;99.90;;;;;;5017976;28;20245;-44
2024/04/04 00:14:17;;;;;;;3.40;1.80;;;11.50;99.90;;;;;;5018339;28;20203;-41
2024/04/04 00:16:43;;;;;;;4.20;1.47;;;11.50;99.90;;;;;;5018115;28;20441;-42
2024/04/04 00:19:09;;;;;;;2.73;1.20;;;11.50;99.90;;;;;;5018343;28;20417;-44
2024/04/04 00:21:35;;;;;;;3.07;1.20;;;11.50;99.90;;;;;;5016746;28;20283;-42
2024/04/04 00:24:01;;;;;;;9.27;1.37;;;11.50;99.90;;;;;;5015848;28;20436;-41
2024/04/04 00:26:27;;;;;;;4.00;1.40;;;11.50;99.90;;;;;;5017289;28;20183;-43
2024/04/04 00:28:53;;;;;;;6.00;1.50;;;11.40;99.90;;;;;;5017364;28;20538;-45
2024/04/04 00:31:18;;;;;;;2.67;1.47;;;11.40;99.90;;;;;;5016590;28;20426;-41
2024/04/04 00:33:44;;;;;;;1.80;0.97;;;11.30;99.90;;;;;;5017660;28;20184;-42
2024/04/04 00:36:09;;;;;;;5.60;2.20;;;11.30;99.90;;;;;;5017421;28;20194;-42
2024/04/04 00:38:36;;;;;;;2.60;1.27;;;11.20;1.00;;;;;;5016534;28;20549;-41
2024/04/04 00:41:02;;;;;;;4.30;2.60;;;11.20;1.00;;;;;;5016534;28;20457;-42
2024/04/04 00:43:27;;;;;;;2.87;1.37;;;11.20;99.90;;;;;;5016452;28;20466;-43
2024/04/04 00:45:53;;;;;;;2.70;1.20;;;11.20;99.90;;;;;;5016883;28;20524;-41
2024/04/04 00:48:18;;;;;;;4.37;1.37;;;11.10;1.00;;;;;;5016374;28;20191;-42
2024/04/04 00:50:44;;;;;;;2.47;1.10;;;11.20;99.90;;;;;;5016927;28;20205;-42
2024/04/04 00:53:11;;;;;;;2.40;1.00;;;11.20;99.90;;;;;;5016116;28;20187;-42
2024/04/04 00:55:36;;;;;;;2.50;1.30;;;11.20;99.90;;;;;;5016165;28;20461;-42
2024/04/04 00:58:03;;;;;;;4.80;1.50;;;11.20;99.90;;;;;;5016705;28;20430;-42
2024/04/04 01:00:29;;;;;;;5.03;1.20;;;11.20;99.90;;;;;;5017140;28;20247;-41
2024/04/04 01:02:56;;;;;;;3.43;1.23;;;11.10;99.90;;;;;;5016480;28;20930;-43
2024/04/04 01:05:21;;;;;;;2.47;1.40;;;11.20;99.90;;;;;;5016307;28;20422;-41
2024/04/04 01:07:48;;;;;;;2.30;0.80;;;11.20;99.90;;;;;;5016347;28;20503;-44
2024/04/04 01:10:14;;;;;;;2.73;1.00;;;11.20;99.90;;;;;;5016995;28;20230;-43
2024/04/04 01:12:40;;;;;;;2.60;0.97;;;11.10;99.90;;;;;;5020969;28;20522;-41
2024/04/04 01:15:06;;;;;;;2.90;0.77;;;11.10;99.90;;;;;;5020771;28;20429;-41
2024/04/04 01:17:33;;;;;;;2.53;1.17;;;11.10;99.90;;;;;;5021213;28;20685;-42
2024/04/04 01:19:58;;;;;;;1.43;0.90;;;11.00;99.90;;;;;;5021180;28;20720;-42
2024/04/04 01:22:24;;;;;;;2.70;0.90;;;11.00;99.90;;;;;;5020206;28;20466;-42
2024/04/04 01:24:50;;;;;;;4.33;0.93;;;11.00;99.90;;;;;;5020276;28;20183;-41
2024/04/04 01:27:15;;;;;;;3.07;1.10;;;11.10;99.90;;;;;;5019324;28;20282;-44
2024/04/04 01:29:41;;;;;;;3.53;1.07;;;11.10;1.00;;;;;;5018904;28;20705;-41
2024/04/04 01:32:07;;;;;;;1.10;0.60;;;11.10;1.00;;;;;;5019026;28;20180;-43
2024/04/04 01:34:33;;;;;;;2.73;1.00;;;11.00;1.00;;;;;;5019232;28;20245;-42
2024/04/04 01:36:58;;;;;;;2.20;0.87;;;11.00;1.00;;;;;;5019153;28;20183;-43
2024/04/04 01:39:26;;;;;;;5.30;1.20;;;11.00;1.00;;;;;;5017681;28;20456;-41
2024/04/04 01:41:54;;;;;;;3.87;1.43;;;11.00;1.00;;;;;;5020219;28;20233;-41
2024/04/04 01:44:20;;;;;;;3.00;1.10;;;11.00;1.00;;;;;;5020701;28;20474;-41
2024/04/04 01:46:46;;;;;;;2.40;1.20;;;11.00;1.00;;;;;;5019991;28;20414;-41
2024/04/04 01:49:12;;;;;;;3.57;1.10;;;11.00;1.00;;;;;;5020251;28;20426;-41
2024/04/04 01:51:37;;;;;;;4.90;1.43;;;10.90;1.00;;;;;;5020390;28;20479;-42
2024/04/04 01:54:05;;;;;;;1.30;0.90;;;10.90;1.00;;;;;;5020323;28;20230;-42
2024/04/04 01:56:30;;;;;;;2.93;1.20;;;10.90;1.00;;;;;;5019759;28;20190;-42
2024/04/04 01:58:56;;;;;;;3.93;1.67;;;10.80;1.00;;;;;;5019792;28;20434;-41
2024/04/04 02:01:22;;;;;;;3.73;1.17;;;10.90;1.00;;;;;;5019693;28;20592;-41
2024/04/04 02:03:47;;;;;;;2.17;1.10;;;10.90;1.00;;;;;;5019306;28;20568;-43
2024/04/04 02:06:13;;;;;;;2.20;1.20;;;10.90;1.00;;;;;;5019816;28;20215;-41
2024/04/04 02:08:39;;;;;;;3.03;1.43;;;10.90;1.00;;;;;;5019653;28;20195;-44
2024/04/04 02:11:05;;;;;;;2.33;1.20;;;10.90;1.00;;;;;;5020046;28;20418;-42
2024/04/04 02:13:32;;;;;;;3.37;1.37;;;10.80;1.00;;;;;;5019537;28;20538;-44
2024/04/04 02:15:58;;;;;;;3.77;1.30;;;10.90;1.00;;;;;;5018907;28;20513;-43
2024/04/04 02:18:23;;;;;;;4.50;1.90;;;10.80;1.00;;;;;;5017239;28;20544;-41
2024/04/04 02:20:49;;;;;;;2.60;1.13;;;10.80;1.00;;;;;;5000404;28;20481;-41
2024/04/04 02:23:14;;;;;;;3.30;1.30;;;10.80;1.00;;;;;;5017683;28;20203;-42
2024/04/04 02:25:40;;;;;;;4.30;1.57;;;10.80;1.00;;;;;;5017876;28;20218;-42
2024/04/04 02:28:06;;;;;;;6.80;1.53;;;10.80;1.00;;;;;;5018527;28;20214;-42
2024/04/04 02:30:31;;;;;;;3.80;1.40;;;10.80;1.00;;;;;;5018368;28;20600;-41
2024/04/04 02:32:57;;;;;;;5.40;1.37;;;10.70;1.00;;;;;;5019250;28;20191;-41
2024/04/04 02:35:26;;;;;;;3.80;1.03;;;10.70;1.00;;;;;;5018875;28;20278;-45
2024/04/04 02:37:51;;;;;;;2.40;1.07;;;10.70;1.00;;;;;;5018229;28;20191;-42
2024/04/04 02:40:17;;;;;;;2.90;1.27;;;10.60;1.00;;;;;;5017760;28;20430;-43
2024/04/04 02:42:42;;;;;;;2.80;1.23;;;10.60;1.00;;;;;;5017705;28;20551;-43
2024/04/04 02:45:08;;;;;;;7.20;1.90;;;10.60;1.00;;;;;;5017345;28;20180;-40
2024/04/04 02:47:34;;;;;;;5.00;1.60;;;10.50;1.00;;;;;;5018888;28;20309;-42
2024/04/04 02:50:00;;;;;;;5.07;1.10;;;10.50;1.00;;;;;;5018548;28;20217;-42
2024/04/04 02:52:25;;;;;;;2.80;1.10;;;10.60;1.00;;;;;;5017090;28;20187;-42
2024/04/04 02:54:51;;;;;;;8.17;1.77;;;10.50;1.00;;;;;;5017468;28;20856;-44
2024/04/04 02:57:17;;;;;;;4.57;1.57;;;10.50;1.00;;;;;;5016236;28;20426;-41
2024/04/04 02:59:43;;;;;;;2.43;1.60;;;10.50;1.00;;;;;;5016354;28;20446;-42
2024/04/04 03:02:09;;;;;;;3.03;1.83;;;10.60;1.00;;;;;;5017484;28;20532;-42
2024/04/04 03:04:38;;;;;;;5.13;1.47;;;10.60;1.00;;;;;;5016195;28;20191;-42
2024/04/04 03:07:04;;;;;;;3.37;1.17;;;10.60;1.00;;;;;;5017694;28;20219;-41
2024/04/04 03:09:29;;;;;;;5.97;1.53;;;10.50;1.00;;;;;;5018437;28;20524;-42
2024/04/04 03:11:55;;;;;;;3.70;1.23;;;10.50;1.00;;;;;;5017975;28;20813;-44
2024/04/04 03:14:21;;;;;;;2.50;1.20;;;10.50;1.00;;;;;;5017886;28;20263;-41
2024/04/04 03:16:46;;;;;;;3.00;1.20;;;10.50;1.00;;;;;;5018703;28;20187;-43
2024/04/04 03:19:12;;;;;;;4.17;1.33;;;10.50;1.00;;;;;;5018122;28;20202;-43
2024/04/04 03:21:38;;;;;;;5.13;1.10;;;10.40;1.00;;;;;;5017908;28;20305;-42
2024/04/04 03:24:03;;;;;;;3.30;1.23;;;10.40;1.00;;;;;;5018576;28;20576;-42
2024/04/04 03:26:29;;;;;;;2.83;1.40;;;10.50;1.00;;;;;;5017731;28;20195;-45
2024/04/04 03:28:55;;;;;;;3.30;1.53;;;10.50;1.00;;;;;;5018297;28;20419;-42
2024/04/04 03:31:21;;;;;;;2.03;0.73;;;10.50;1.00;;;;;;5018119;28;20195;-41
2024/04/04 03:33:47;;;;;;;3.47;2.00;;;10.50;1.00;;;;;;5017899;28;20187;-43
2024/04/04 03:36:12;;;;;;;2.43;0.80;;;10.50;1.00;;;;;;5017291;28;20207;-44
2024/04/04 03:38:38;;;;;;;1.83;1.07;;;10.40;1.00;;;;;;5015918;28;20526;-44
2024/04/04 03:41:03;;;;;;;1.83;1.00;;;10.40;1.00;;;;;;5016863;28;20621;-44
2024/04/04 03:43:29;;;;;;;4.37;1.43;;;10.40;1.00;;;;;;5016393;28;20613;-43
2024/04/04 03:45:55;;;;;;;2.03;1.30;;;10.40;1.00;;;;;;5016734;28;20297;-41
2024/04/04 03:48:20;;;;;;;2.80;1.17;;;10.40;1.00;;;;;;5016839;28;20195;-42
2024/04/04 03:50:46;;;;;;;4.60;1.20;;;10.40;1.00;;;;;;5017563;28;20261;-43
2024/04/04 03:53:13;;;;;;;3.30;1.00;;;10.40;1.00;;;;;;5017215;28;20193;-43
2024/04/04 03:55:41;;;;;;;2.27;1.23;;;10.40;1.00;;;;;;5015965;28;20422;-43
2024/04/04 03:58:07;;;;;;;3.37;1.10;;;10.40;1.00;;;;;;5016271;28;20438;-44
2024/04/04 04:00:32;;;;;;;2.93;0.90;;;10.40;1.00;;;;;;5015029;28;20441;-43
2024/04/04 04:02:58;;;;;;;1.50;0.97;;;10.40;1.00;;;;;;5014130;28;20493;-41
2024/04/04 04:05:24;;;;;;;2.67;1.10;;;10.40;1.00;;;;;;5013055;28;20589;-42
2024/04/04 04:07:49;;;;;;;2.30;1.13;;;10.30;1.00;;;;;;5012507;28;20182;-42
2024/04/04 04:10:15;;;;;;;3.87;1.30;;;10.30;1.00;;;;;;5013196;28;20502;-42
2024/04/04 04:12:40;;;;;;;4.60;1.37;;;10.40;1.00;;;;;;5014316;28;20203;-43
2024/04/04 04:15:06;;;;;;;3.70;1.13;;;10.30;1.00;;;;;;5014651;28;20183;-40
2024/04/04 04:17:32;;;;;;;1.77;1.10;;;10.30;1.00;;;;;;5015345;28;20553;-42
2024/04/04 04:19:58;;;;;;;2.03;1.17;;;10.30;1.00;;;;;;5016664;28;20175;-43
2024/04/04 04:22:24;;;;;;;1.43;1.00;;;10.30;1.00;;;;;;5016277;28;20215;-42
2024/04/04 04:24:50;;;;;;;3.93;1.13;;;10.30;1.00;;;;;;5016977;28;20422;-43
2024/04/04 04:27:15;;;;;;;4.07;1.00;;;10.30;1.00;;;;;;5015728;28;20207;-42
2024/04/04 04:29:41;;;;;;;3.10;2.80;;;10.20;1.00;;;;;;5016588;28;20515;-40
2024/04/04 04:32:06;;;;;;;2.30;1.50;;;10.20;1.00;;;;;;5016865;28;20201;-43
2024/04/04 04:34:32;;;;;;;4.10;1.20;;;10.20;1.00;;;;;;5016720;28;20542;-41
2024/04/04 04:37:05;;;;;;;4.60;1.27;;;10.10;1.00;;;;;;5015910;28;20261;-41
2024/04/04 04:39:31;;;;;;;2.60;0.93;;;10.10;1.00;;;;;;5015791;28;20183;-39
2024/04/04 04:41:57;;;;;;;1.60;1.30;;;10.10;1.00;;;;;;5015197;28;20474;-43
2024/04/04 04:44:24;;;;;;;3.27;1.20;;;10.10;1.00;;;;;;5015046;28;20538;-42
2024/04/04 04:46:50;;;;;;;6.07;1.20;;;10.00;1.00;;;;;;5015235;28;20502;-41
2024/04/04 04:49:18;;;;;;;3.03;1.20;;;10.00;1.00;;;;;;5014393;28;20544;-41
2024/04/04 04:51:43;;;;;;;3.17;1.20;;;10.00;1.00;;;;;;5014991;28;20426;-43
2024/04/04 04:54:09;;;;;;;3.60;1.70;;;10.00;1.00;;;;;;5013522;28;20908;-41
2024/04/04 04:56:35;;;;;;;1.43;1.00;;;10.00;1.00;;;;;;5014117;28;20297;-40
2024/04/04 04:59:00;;;;;;;3.30;1.30;;;9.90;1.00;;;;;;5015873;28;20504;-40
2024/04/04 05:01:26;;;;;;;2.03;1.30;;;10.00;1.00;;;;;;5015945;28;20179;-41
2024/04/04 05:03:52;;;;;;;4.93;1.40;;;10.00;1.00;;;;;;5015690;28;20187;-42
2024/04/04 05:06:18;;;;;;;1.97;1.20;;;9.90;1.00;;;;;;5016109;28;20175;-41
2024/04/04 05:08:43;;;;;;;2.13;0.80;;;9.90;1.00;;;;;;5014785;28;20238;-42
2024/04/04 05:11:09;;;;;;;2.90;1.30;;;10.00;1.00;;;;;;5014229;28;20473;-41
2024/04/04 05:13:34;;;;;;;4.83;1.40;;;10.00;1.00;;;;;;5012725;28;20194;-43
2024/04/04 05:16:01;;;;;;;4.70;1.10;;;10.00;1.00;;;;;;5013772;28;20186;-41
2024/04/04 05:18:27;;;;;;;1.67;1.10;;;10.00;1.00;;;;;;5013993;28;20256;-46
2024/04/04 05:21:04;;;;;;;1.30;1.00;;;10.30;1.00;;;;;;5012591;28;20430;-48
2024/04/04 05:23:30;;;;;;;2.93;1.30;;;10.60;1.00;;;;;;5013194;28;20214;-47
2024/04/04 05:25:55;;;;;;;3.10;1.43;;;10.80;1.00;;;;;;5013839;28;20414;-41
2024/04/04 05:28:26;;;;;;;4.00;1.63;;;10.90;1.00;;;;;;5014148;28;20441;-41
2024/04/04 05:31:02;;;;;;;4.23;2.27;;;10.80;1.00;;;;;;5015241;28;20350;-49
2024/04/04 05:33:28;;;;;;;2.00;1.10;;;10.70;1.00;;;;;;5015305;28;20452;-40
2024/04/04 05:35:53;;;;;;;3.37;1.30;;;10.60;1.00;;;;;;5013212;28;20442;-41
2024/04/04 05:38:19;;;;;;;3.50;1.10;;;10.50;1.00;;;;;;5014910;28;20199;-44
2024/04/04 05:40:44;;;;;;;3.20;1.03;;;10.40;1.00;;;;;;5015283;28;20190;-42
2024/04/04 05:43:10;;;;;;;4.87;1.47;;;10.40;1.00;;;;;;5013529;28;20219;-43
2024/04/04 05:45:36;;;;;;;4.07;1.20;;;10.40;1.00;;;;;;5014647;28;20187;-41
2024/04/04 05:48:01;;;;;;;2.70;1.40;;;10.30;1.00;;;;;;5012538;28;20341;-46
2024/04/04 05:50:27;;;;;;;2.40;1.10;;;10.30;1.00;;;;;;5015211;28;20233;-41
2024/04/04 05:52:52;;;;;;;5.23;1.60;;;10.30;1.00;;;;;;5015623;28;20447;-45
2024/04/04 05:55:18;;;;;;;2.33;1.33;;;10.30;1.00;;;;;;5015413;28;20184;-42
2024/04/04 05:57:44;;;;;;;4.67;1.53;;;10.30;1.00;;;;;;5018853;28;20226;-41
2024/04/04 06:00:10;;;;;;;3.73;1.50;;;10.30;1.00;;;;;;5017658;28;20206;-42
2024/04/04 06:02:39;;;;;;;8.10;1.53;;;10.30;1.00;;;;;;5016740;28;20730;-43
2024/04/04 06:05:05;;;;;;;5.10;2.00;;;10.40;1.00;;;;;;5016987;28;20422;-42
2024/04/04 06:07:32;;;;;;;3.10;1.43;;;10.40;1.00;;;;;;5016857;28;20739;-41
2024/04/04 06:09:58;;;;;;;2.40;1.27;;;10.40;1.00;;;;;;4998301;28;20486;-42
2024/04/04 06:12:24;;;;;;;6.73;1.50;;;10.50;1.00;;;;;;5016374;28;20508;-42
2024/04/04 06:14:49;;;;;;;3.67;1.47;;;10.60;1.00;;;;;;5016127;28;20218;-40
2024/04/04 06:17:15;;;;;;;4.07;1.47;;;10.60;1.00;;;;;;5016589;28;20171;-43
2024/04/04 06:19:41;;;;;;;5.13;1.70;;;10.80;1.00;;;;;;5014751;28;20234;-43
2024/04/04 06:22:06;;;;;;;4.13;2.00;;;10.90;1.00;;;;;;5014746;28;20756;-41
2024/04/04 06:24:33;;;;;;;4.70;1.57;;;11.20;99.90;;;;;;5014256;28;20439;-41
2024/04/04 06:26:58;;;;;;;3.23;1.10;;;11.50;99.90;;;;;;5013942;28;20210;-42
2024/04/04 06:29:24;;;;;;;7.03;1.97;;;11.70;99.90;;;;;;5013313;28;20430;-42
2024/04/04 06:31:50;;;;;;;7.40;1.77;;;11.80;99.90;;;;;;5014834;28;20218;-43
2024/04/04 06:34:16;;;;;;;7.33;2.90;;;11.90;99.90;;;;;;5016602;28;20480;-41
2024/04/04 06:36:42;;;;;;;5.10;1.40;;;11.90;58.60;;;;;;5016929;28;20994;-41
2024/04/04 06:39:09;;;;;;;4.53;2.17;;;12.00;54.80;;;;;;5016795;28;20461;-44
2024/04/04 06:41:35;;;;;;;7.47;1.73;;;12.00;32.10;;;;;;5016215;28;20541;-41
2024/04/04 06:44:01;;;;;;;5.87;1.80;;;12.10;2.20;;;;;;5017195;28;21045;-42
2024/04/04 06:46:26;;;;;;;5.67;1.40;;;12.10;1.00;;;;;;5016572;28;20442;-42
2024/04/04 06:48:52;;;;;;;9.67;2.13;;;12.20;1.00;;;;;;5018300;28;20218;-42
2024/04/04 06:51:18;;;;;;;6.50;1.80;;;12.30;1.00;;;;;;5017606;28;20288;-42
2024/04/04 06:53:43;;;;;;;6.57;1.70;;;12.40;1.00;;;;;;5017418;28;20315;-41
2024/04/04 06:56:09;;;;;;;9.87;2.27;;;12.60;1.00;;;;;;5014763;28;20234;-43
2024/04/04 06:58:35;;;;;;;4.50;1.70;;;12.60;1.00;;;;;;5015596;28;20191;-44
2024/04/04 07:01:01;;;;;;;7.00;1.60;;;12.80;1.00;;;;;;5015459;28;20199;-42
2024/04/04 07:03:27;;;;;;;8.43;1.90;;;12.90;99.90;;;;;;4998833;28;20233;-44
2024/04/04 07:05:53;;;;;;;7.57;2.00;;;13.00;99.90;;;;;;5012882;28;20712;-42
2024/04/04 07:08:19;;;;;;;7.30;1.80;;;13.10;99.90;;;;;;5009350;28;20422;-42
2024/04/04 07:10:47;;;;;;;6.77;1.40;;;13.30;99.90;;;;;;4995844;28;20450;-42
2024/04/04 07:13:14;;;;;;;3.87;1.40;;;13.40;1.00;;;;;;4994119;28;20550;-42
2024/04/04 07:15:40;;;;;;;5.23;1.93;;;13.50;1.00;;;;;;4996513;28;20829;-44
2024/04/04 07:18:10;;;;;;;6.40;1.73;;;13.60;99.90;;;;;;4996723;28;20505;-41
2024/04/04 07:20:39;;;;;;;4.50;1.70;;;13.70;99.90;;;;;;5013103;28;20578;-41
2024/04/04 07:23:05;;;;;;;5.63;1.70;;;13.60;99.90;;;;;;4996396;28;20470;-42
2024/04/04 07:25:32;;;;;;;13.70;2.90;;;13.50;1.00;;;;;;4998143;28;20473;-42
2024/04/04 07:27:58;;;;;;;5.43;1.80;;;13.50;99.90;;;;;;4997829;28;20427;-43
2024/04/04 07:30:24;;;;;;;7.70;1.87;;;13.50;1.00;;;;;;4997963;28;20493;-41
2024/04/04 07:32:50;;;;;;;9.23;2.10;;;13.30;1.00;;;;;;4996735;28;20432;-42
2024/04/04 07:35:16;;;;;;;7.53;2.03;;;13.20;1.00;;;;;;4995056;28;20454;-42
2024/04/04 07:37:41;;;;;;;7.40;1.70;;;13.10;99.90;;;;;;4996578;28;20287;-41
2024/04/04 07:40:07;;;;;;;3.77;1.67;;;13.00;99.90;;;;;;4994631;28;20435;-42
2024/04/04 07:42:34;;;;;;;7.20;1.80;;;12.90;99.90;;;;;;4997644;28;20963;-42
2024/04/04 07:44:59;;;;;;;6.87;1.80;;;12.80;99.90;;;;;;4996006;28;20606;-43
2024/04/04 07:47:26;;;;;;;6.30;1.73;;;12.80;1.00;;;;;;4996518;28;20525;-43
2024/04/04 07:49:52;;;;;;;8.23;2.60;;;12.70;1.00;;;;;;4993512;28;20275;-42
2024/04/04 07:52:19;;;;;;;5.73;1.83;;;12.60;1.00;;;;;;4996493;28;20446;-42
2024/04/04 07:54:45;;;;;;;7.07;2.00;;;12.50;1.00;;;;;;4995971;28;20454;-42
2024/04/04 07:57:10;;;;;;;5.73;2.10;;;12.50;29.60;;;;;;4994494;28;20423;-45
2024/04/04 07:59:38;;;;;;;6.50;1.90;;;12.50;85.70;;;;;;4994440;28;20478;-42
2024/04/04 08:02:04;;;;;;;5.60;2.10;;;12.50;14.30;;;;;;4994033;28;20218;-42
2024/04/04 08:04:29;;;;;;;4.73;1.63;;;12.40;59.00;;;;;;4993977;28;20722;-42
2024/04/04 08:06:55;;;;;;;9.70;1.87;;;12.40;99.90;;;;;;4994464;28;20188;-44
2024/04/04 08:09:21;;;;;;;6.77;2.33;;;12.40;99.90;;;;;;4993661;28;20298;-43
2024/04/04 08:11:46;;;;;;;6.20;1.50;;;12.30;99.90;;;;;;4994355;28;20322;-45
2024/04/04 08:14:12;;;;;;;6.93;1.87;;;12.20;99.90;;;;;;4994775;28;20187;-43
2024/04/04 08:16:37;;;;;;;8.77;2.07;;;12.20;99.90;;;;;;4993090;28;20281;-44
2024/04/04 08:19:04;;;;;;;4.13;1.90;;;12.20;99.90;;;;;;4993645;28;20203;-43
2024/04/04 08:21:30;;;;;;;5.00;1.77;;;12.10;99.90;;;;;;4996197;28;20535;-43
2024/04/04 08:23:56;;;;;;;7.00;1.90;;;12.00;99.90;;;;;;4997331;28;20515;-44
2024/04/04 08:26:24;;;;;;;4.33;1.83;;;12.00;99.90;;;;;;4997653;28;20191;-42
2024/04/04 08:28:50;;;;;;;3.30;1.43;;;12.00;99.90;;;;;;4998108;28;20270;-42
2024/04/04 08:31:17;;;;;;;3.10;1.50;;;12.00;99.90;;;;;;4998937;28;20419;-43
2024/04/04 08:33:43;;;;;;;4.17;1.40;;;12.00;99.90;;;;;;4997082;28;20497;-46
2024/04/04 08:36:08;;;;;;;6.07;1.50;;;12.00;99.90;;;;;;4995262;28;20419;-45
2024/04/04 08:38:34;;;;;;;4.47;1.60;;;12.00;99.90;;;;;;4995142;28;20579;-42
2024/04/04 08:41:07;;;;;;;5.03;1.40;;;12.00;99.90;;;;;;4996918;28;20184;-44
2024/04/04 08:43:34;;;;;;;3.97;1.60;;;12.10;99.90;;;;;;4994937;28;20322;-43
2024/04/04 08:46:06;;;;;;;5.53;1.77;;;12.00;99.90;;;;;;4997522;28;20453;-43
2024/04/04 08:48:32;;;;;;;9.37;1.87;;;12.10;99.90;;;;;;4995577;28;20517;-43
2024/04/04 08:50:58;;;;;;;3.33;1.20;;;12.10;99.90;;;;;;4995518;28;20458;-42
2024/04/04 08:53:27;;;;;;;4.17;1.37;;;12.10;99.90;;;;;;4996620;28;20411;-43
2024/04/04 08:55:56;;;;;;;7.60;1.77;;;12.20;99.90;;;;;;4995410;28;20254;-42
2024/04/04 08:58:23;;;;;;;5.03;1.83;;;12.20;99.90;;;;;;4997024;28;20489;-43
2024/04/04 09:00:53;;;;;;;7.47;2.30;;;12.30;99.90;;;;;;4995742;28;20703;-43
2024/04/04 09:03:19;;;;;;;4.73;1.73;;;12.40;99.90;;;;;;4996203;28;20470;-43
2024/04/04 09:05:50;;;;;;;4.53;1.90;;;12.50;50.90;;;;;;4995736;28;20917;-44
2024/04/04 09:08:16;;;;;;;3.57;1.73;;;12.70;99.90;;;;;;4995015;28;20416;-44
2024/04/04 09:10:42;;;;;;;4.53;1.60;;;12.70;99.90;;;;;;4996813;28;20503;-42
2024/04/04 09:13:09;;;;;;;3.60;1.43;;;12.90;26.70;;;;;;4994805;28;20426;-43
2024/04/04 09:15:37;;;;;;;3.83;1.60;;;12.80;1.00;;;;;;4993234;28;20431;-44
2024/04/04 09:18:11;;;;;;;3.90;1.57;;;12.80;21.40;;;;;;4993862;28;20695;-44
2024/04/04 09:20:38;;;;;;;6.60;1.90;;;12.90;1.00;;;;;;4993287;28;20513;-42
2024/04/04 09:23:06;;;;;;;4.67;1.30;;;12.90;7.40;;;;;;4994030;28;20536;-42
2024/04/04 09:25:32;;;;;;;4.57;1.63;;;13.00;15.40;;;;;;4994540;28;20435;-43
2024/04/04 09:28:00;;;;;;;5.17;1.60;;;13.10;1.00;;;;;;4995332;28;20430;-42
2024/04/04 09:30:29;;;;;;;4.07;1.20;;;13.10;1.00;;;;;;4993260;28;20497;-44
2024/04/04 09:32:55;;;;;;;4.23;1.10;;;13.10;1.00;;;;;;5013023;28;20454;-41
2024/04/04 09:35:21;;;;;;;4.57;1.53;;;13.10;1.00;;;;;;5014605;28;20443;-43
2024/04/04 09:37:48;;;;;;;3.97;1.57;;;13.20;1.00;;;;;;4998647;28;20271;-43
2024/04/04 09:40:15;;;;;;;4.13;1.40;;;13.20;12.80;;;;;;4997256;28;20706;-43
2024/04/04 09:42:44;;;;;;;3.37;1.43;;;13.30;1.00;;;;;;4996565;28;20983;-43
2024/04/04 09:45:10;;;;;;;4.07;1.30;;;13.40;1.00;;;;;;4996971;28;20431;-42
2024/04/04 09:47:47;;;;;;;4.67;1.57;;;13.40;1.00;;;;;;5005104;28;20499;-42
2024/04/04 09:50:15;;;;;;;3.30;1.57;;;13.50;1.00;;;;;;5017297;28;20421;-43
2024/04/04 09:52:41;;;;;;;9.67;1.70;;;13.50;1.00;;;;;;5017924;28;20429;-42
2024/04/04 09:55:15;;;;;;;3.70;1.43;;;13.50;1.00;;;;;;5016659;28;20771;-41
2024/04/04 09:57:41;;;;;;;5.17;1.97;;;13.50;1.00;;;;;;5017480;28;20746;-42
2024/04/04 10:00:17;;;;;;;6.27;2.23;;;13.40;1.00;;;;;;5016042;28;20442;-43
2024/04/04 10:02:59;;;;;;;6.27;1.67;;;13.40;1.00;;;;;;5019300;28;20522;-44
2024/04/04 10:05:30;;;;;;;3.67;1.47;;;13.30;30.60;;;;;;5019478;28;20449;-41
2024/04/04 10:08:12;;;;;;;5.30;1.37;;;13.20;35.20;;;;;;5016946;28;20425;-42
2024/04/04 10:10:43;;;;;;;4.23;1.53;;;13.10;99.90;;;;;;5018331;28;20481;-43
2024/04/04 10:13:12;;;;;;;6.67;1.70;;;13.00;99.90;;;;;;5018452;28;20426;-44
2024/04/04 10:15:48;;;;;;;5.63;2.27;;;13.00;99.90;;;;;;5018952;28;20848;-44
2024/04/04 10:18:18;;;;;;;8.50;3.80;;;13.00;99.90;;;;;;5018061;28;20516;-43
2024/04/04 10:20:59;;;;;;;4.93;2.13;;;13.10;99.90;;;;;;5014547;28;20442;-43
2024/04/04 10:23:25;;;;;;;6.57;1.80;;;13.10;99.90;;;;;;5003728;28;20458;-41
2024/04/04 10:25:51;;;;;;;5.50;1.57;;;13.10;99.90;;;;;;5018116;28;20996;-41
2024/04/04 10:28:18;;;;;;;4.27;1.60;;;13.10;99.90;;;;;;5017566;28;20541;-41
2024/04/04 10:30:47;;;;;;;4.37;1.60;;;13.10;99.90;;;;;;5015987;28;20441;-42
2024/04/04 10:33:15;;;;;;;8.53;1.80;;;13.00;99.90;;;;;;5015412;28;20432;-42
2024/04/04 10:35:41;;;;;;;6.80;2.30;;;12.90;99.90;;;;;;5014159;28;20757;-41
2024/04/04 10:38:11;;;;;;;3.90;1.93;;;12.90;99.90;;;;;;5014708;28;20525;-42
2024/04/04 10:40:37;;;;;;;4.50;1.83;;;12.90;1.00;;;;;;5014550;28;20444;-40
2024/04/04 10:43:04;;;;;;;4.80;2.00;;;12.90;1.00;;;;;;5016086;28;20481;-42
2024/04/04 10:45:30;;;;;;;4.90;2.63;;;12.90;1.00;;;;;;5000583;28;20435;-41
2024/04/04 10:47:59;;;;;;;4.57;1.60;;;13.00;99.90;;;;;;5015179;28;20621;-43
2024/04/04 10:50:30;;;;;;;4.07;1.50;;;13.10;1.00;;;;;;5014224;28;20619;-42
2024/04/04 10:52:56;;;;;;;6.73;2.10;;;13.20;1.00;;;;;;5015376;28;20430;-43
2024/04/04 10:55:24;;;;;;;4.07;1.63;;;13.30;1.00;;;;;;5016528;28;20426;-44
2024/04/04 10:57:53;;;;;;;3.97;1.80;;;13.40;1.00;;;;;;5016619;28;20686;-43
2024/04/04 11:00:20;;;;;;;5.60;1.90;;;13.50;99.90;;;;;;5016399;28;20476;-42
2024/04/04 11:02:50;;;;;;;6.80;1.67;;;13.50;99.90;;;;;;5017448;28;20470;-42
2024/04/04 11:05:19;;;;;;;5.73;1.60;;;13.90;99.90;;;;;;5018054;28;20414;-43
2024/04/04 11:07:46;;;;;;;6.10;2.40;;;14.30;99.90;;;;;;5016443;28;20430;-43
2024/04/04 11:10:15;;;;;;;5.17;2.27;;;14.50;99.90;;;;;;5015478;28;20469;-42
2024/04/04 11:12:44;;;;;;;5.50;2.40;;;14.40;79.60;;;;;;5016941;28;20430;-41
2024/04/04 11:15:10;;;;;;;3.50;1.90;;;14.40;99.90;;;;;;5016714;28;20433;-41
2024/04/04 11:17:37;;;;;;;12.13;4.70;;;14.30;99.90;;;;;;5017721;28;21056;-41
2024/04/04 11:20:14;;;;;;;4.40;1.47;;;14.20;21.90;;;;;;5017636;28;20503;-42
2024/04/04 11:22:40;;;;;;;5.83;1.60;;;13.90;1.00;;;;;;5018441;28;20898;-42
2024/04/04 11:25:07;;;;;;;4.80;1.73;;;13.70;99.90;;;;;;5017686;28;20519;-44
2024/04/04 11:27:34;;;;;;;5.03;2.00;;;13.70;99.90;;;;;;5016435;28;20518;-42
2024/04/04 11:30:00;;;;;;;6.00;1.70;;;13.60;99.90;;;;;;5017146;28;20434;-43
2024/04/04 11:32:25;;;;;;;6.37;1.83;;;13.50;99.90;;;;;;5015092;28;20515;-43
2024/04/04 11:34:51;;;;;;;5.40;1.83;;;13.50;99.90;;;;;;5015980;28;20515;-43
2024/04/04 11:37:19;;;;;;;10.43;2.10;;;13.60;99.90;;;;;;5015901;28;20179;-42
2024/04/04 11:39:45;;;;;;;5.50;2.30;;;13.60;99.90;;;;;;5014732;28;20273;-42
2024/04/04 11:42:11;;;;;;;4.07;1.30;;;13.50;99.90;;;;;;5016527;28;20578;-42
2024/04/04 11:44:37;;;;;;;2.37;1.50;;;13.50;99.90;;;;;;5017117;28;20446;-42
2024/04/04 11:47:02;;;;;;;3.00;1.67;;;13.50;99.90;;;;;;5018109;28;20193;-41
2024/04/04 11:49:29;;;;;;;6.70;2.20;;;13.40;99.90;;;;;;5016410;28;20671;-41
2024/04/04 11:51:56;;;;;;;4.30;1.93;;;13.30;99.90;;;;;;5017388;28;20187;-42
2024/04/04 11:54:22;;;;;;;2.30;1.67;;;13.30;99.90;;;;;;5014892;28;20521;-42
2024/04/04 11:56:47;;;;;;;5.53;2.50;;;13.30;99.90;;;;;;5014100;28;20430;-42
2024/04/04 11:59:13;;;;;;;5.00;1.60;;;13.30;99.90;;;;;;5016579;28;20415;-44
2024/04/04 12:01:39;;;;;;;5.37;1.80;;;13.30;99.90;;;;;;5016628;28;20415;-44
2024/04/04 12:04:05;;;;;;;5.30;1.60;;;13.40;99.90;;;;;;5017252;28;20290;-42
2024/04/04 12:06:31;;;;;;;3.10;1.50;;;13.70;16.80;;;;;;5017197;28;20179;-42
2024/04/04 12:08:58;;;;;;;3.40;1.40;;;14.00;1.00;;;;;;5016910;28;20548;-42
2024/04/04 12:11:24;;;;;;;3.00;1.23;;;14.20;1.00;;;;;;5016072;28;20456;-42
2024/04/04 12:13:50;;;;;;;2.60;1.30;;;14.30;1.00;;;;;;5016844;28;20410;-41
2024/04/04 12:16:19;;;;;;;3.50;1.07;;;14.40;99.90;;;;;;5015796;28;20426;-42
2024/04/04 12:21:29;;;;;;;3.10;1.53;;;14.20;99.90;;;;;;5016124;28;20453;-45
2024/04/04 12:23:55;;;;;;;3.10;1.27;;;14.20;99.90;;;;;;5015708;28;20498;-42
2024/04/04 12:26:22;;;;;;;4.30;1.70;;;14.00;99.90;;;;;;5017530;28;20187;-40
2024/04/04 12:28:52;;;;;;;4.13;1.40;;;14.00;99.90;;;;;;5016285;28;20429;-41
2024/04/04 12:31:19;;;;;;;4.40;1.80;;;13.90;1.00;;;;;;5016548;28;20808;-42
2024/04/04 12:33:45;;;;;;;1.60;1.20;;;13.80;1.00;;;;;;5017374;28;20747;-42
2024/04/04 12:36:10;;;;;;;3.23;1.30;;;13.90;1.00;;;;;;5017260;28;20422;-45
2024/04/04 12:38:36;;;;;;;2.23;1.10;;;13.90;1.00;;;;;;5014919;28;20198;-43
2024/04/04 12:41:02;;;;;;;6.90;1.40;;;13.90;99.90;;;;;;5017355;28;20211;-42
2024/04/04 12:43:28;;;;;;;2.30;1.37;;;13.80;99.90;;;;;;5017009;28;20485;-43
2024/04/04 12:46:02;;;;;;;4.10;1.40;;;13.90;1.00;;;;;;5015204;28;20705;-41
2024/04/04 12:48:28;;;;;;;4.07;1.20;;;13.90;99.90;;;;;;5016405;28;20190;-41
2024/04/04 12:50:54;;;;;;;1.60;0.80;;;14.00;99.90;;;;;;5017800;28;20413;-41
2024/04/04 12:53:19;;;;;;;3.60;0.90;;;14.00;99.90;;;;;;5016836;28;20447;-41